Time;durP1;ratioP1;P1;durP2;ratioP2;P2;SDS_P1;SDS_P2;PMS_P1;PMS_P2;Temp;Humidity;BMP_temperature;BMP_pressure;BME280_temperature;BME280_humidity;BME280_pressure;Samples;Min_cycle;Max_cycle;Signal;HPM_P1;HPM_P2
2021/03/26 00:01:12;;;;;;;21.53;15.57;;;11.40;94.70;;;;;;5052972;28;20422;-73
2021/03/26 00:03:40;;;;;;;20.17;17.00;;;11.30;94.80;;;;;;5052949;28;20156;-73
2021/03/26 00:06:11;;;;;;;19.17;16.40;;;11.30;94.80;;;;;;5052814;28;20449;-74
2021/03/26 00:08:36;;;;;;;17.40;15.30;;;11.30;94.90;;;;;;5052531;28;21010;-74
2021/03/26 00:11:04;;;;;;;18.20;15.50;;;11.20;94.90;;;;;;5051570;28;20409;-74
2021/03/26 00:13:30;;;;;;;20.00;16.80;;;11.20;94.90;;;;;;5051667;28;20327;-73
2021/03/26 00:15:56;;;;;;;17.10;15.07;;;11.20;95.00;;;;;;5052659;28;20407;-73
2021/03/26 00:18:22;;;;;;;21.17;17.37;;;11.20;95.20;;;;;;5051821;28;20405;-73
2021/03/26 00:20:48;;;;;;;20.20;16.10;;;11.20;95.30;;;;;;5051639;28;20173;-73
2021/03/26 00:23:14;;;;;;;22.23;17.03;;;11.10;95.80;;;;;;5051454;28;20467;-73
2021/03/26 00:25:39;;;;;;;20.20;15.90;;;11.10;95.40;;;;;;5052037;28;20501;-73
2021/03/26 00:28:06;;;;;;;17.80;15.90;;;11.10;95.50;;;;;;5051398;28;20962;-74
2021/03/26 00:30:33;;;;;;;22.63;16.40;;;11.10;95.80;;;;;;5051676;28;20179;-73
2021/03/26 00:32:59;;;;;;;22.47;16.70;;;11.10;96.10;;;;;;5052460;28;20437;-74
2021/03/26 00:35:26;;;;;;;21.80;17.40;;;11.10;95.60;;;;;;5051543;28;20795;-74
2021/03/26 00:37:52;;;;;;;17.80;15.90;;;11.10;95.70;;;;;;5052294;28;20459;-73
2021/03/26 00:40:19;;;;;;;19.57;15.90;;;11.10;95.70;;;;;;5051557;28;20446;-74
2021/03/26 00:42:45;;;;;;;20.70;15.97;;;11.10;95.30;;;;;;5052239;28;20484;-73
2021/03/26 00:45:15;;;;;;;19.07;15.97;;;11.10;95.60;;;;;;5051837;28;20415;-73
2021/03/26 00:47:41;;;;;;;22.40;16.47;;;11.00;95.80;;;;;;5051933;28;20458;-73
2021/03/26 00:50:12;;;;;;;21.20;16.83;;;11.00;96.10;;;;;;5050587;28;20764;-74
2021/03/26 00:52:38;;;;;;;19.77;16.57;;;11.00;96.10;;;;;;5051901;28;20255;-73
2021/03/26 00:55:05;;;;;;;19.23;15.30;;;11.00;96.00;;;;;;5052371;28;20513;-73
2021/03/26 00:57:30;;;;;;;17.60;15.33;;;11.00;96.10;;;;;;5051492;28;20515;-74
2021/03/26 00:59:56;;;;;;;20.00;15.63;;;11.00;96.10;;;;;;5052048;28;20457;-73
2021/03/26 01:02:22;;;;;;;16.50;14.67;;;11.00;95.90;;;;;;5051543;28;20327;-73
2021/03/26 01:04:48;;;;;;;21.30;16.13;;;11.00;96.10;;;;;;5052071;28;20256;-73
2021/03/26 01:07:13;;;;;;;20.40;16.67;;;11.00;96.00;;;;;;5051827;28;20238;-74
2021/03/26 01:09:39;;;;;;;19.43;16.20;;;11.00;96.20;;;;;;5051796;28;20677;-73
2021/03/26 01:12:05;;;;;;;18.80;15.70;;;11.00;96.10;;;;;;5052038;28;20194;-74
2021/03/26 01:14:31;;;;;;;19.17;15.90;;;10.90;96.10;;;;;;5050723;28;20183;-74
2021/03/26 01:16:59;;;;;;;22.27;17.40;;;10.90;96.10;;;;;;5051421;28;20499;-73
2021/03/26 01:19:27;;;;;;;22.80;16.77;;;10.90;96.00;;;;;;5051066;28;20185;-73
2021/03/26 01:21:52;;;;;;;23.93;16.00;;;10.90;95.80;;;;;;5051692;28;20404;-73
2021/03/26 01:24:18;;;;;;;21.73;17.23;;;10.90;95.70;;;;;;5050575;28;20740;-73
2021/03/26 01:26:44;;;;;;;20.10;16.10;;;10.80;95.80;;;;;;5051145;28;20230;-73
2021/03/26 01:29:11;;;;;;;21.67;15.47;;;10.80;95.90;;;;;;5051815;28;20972;-74
2021/03/26 01:31:39;;;;;;;21.70;16.13;;;10.80;96.00;;;;;;5051620;28;20609;-73
2021/03/26 01:34:05;;;;;;;23.90;17.50;;;10.70;95.80;;;;;;5055634;28;20419;-73
2021/03/26 01:36:32;;;;;;;21.30;15.80;;;10.70;95.80;;;;;;5054899;28;20420;-73
2021/03/26 01:38:57;;;;;;;20.67;16.10;;;10.70;95.70;;;;;;5055485;28;20402;-73
2021/03/26 01:41:23;;;;;;;22.30;17.37;;;10.70;95.90;;;;;;5054521;28;20499;-73
2021/03/26 01:43:49;;;;;;;18.67;15.67;;;10.60;96.00;;;;;;5055522;28;20775;-73
2021/03/26 01:46:16;;;;;;;20.50;16.53;;;10.60;96.00;;;;;;5055451;28;20654;-73
2021/03/26 01:48:51;;;;;;;19.73;17.60;;;10.60;95.90;;;;;;5055034;28;20531;-74
2021/03/26 01:51:24;;;;;;;21.03;15.83;;;10.60;96.00;;;;;;5054914;28;20418;-73
2021/03/26 01:53:52;;;;;;;21.90;16.87;;;10.50;95.80;;;;;;5055287;28;20424;-74
2021/03/26 01:56:17;;;;;;;22.13;16.03;;;10.50;96.00;;;;;;5054818;28;20400;-73
2021/03/26 01:58:43;;;;;;;23.67;17.17;;;10.50;96.00;;;;;;5055164;28;20420;-74
2021/03/26 02:01:23;;;;;;;21.17;16.00;;;10.40;95.90;;;;;;5055254;28;20931;-75
2021/03/26 02:03:52;;;;;;;19.80;16.73;;;10.40;95.80;;;;;;5055405;28;20174;-75
2021/03/26 02:06:22;;;;;;;23.03;17.33;;;10.40;96.30;;;;;;5054619;28;20501;-75
2021/03/26 02:08:50;;;;;;;19.93;16.50;;;10.40;96.50;;;;;;5055145;28;20460;-75
2021/03/26 02:11:29;;;;;;;21.07;16.73;;;10.40;96.60;;;;;;5054838;28;20408;-75
2021/03/26 02:13:56;;;;;;;21.63;16.73;;;10.30;96.30;;;;;;5055122;28;20411;-75
2021/03/26 02:16:23;;;;;;;17.37;15.50;;;10.30;95.90;;;;;;5054113;28;20412;-75
2021/03/26 02:18:50;;;;;;;20.40;17.53;;;10.30;96.10;;;;;;5055030;28;20423;-75
2021/03/26 02:21:27;;;;;;;20.27;17.70;;;10.20;95.90;;;;;;5054379;28;20426;-75
2021/03/26 02:23:54;;;;;;;21.33;17.00;;;10.20;96.00;;;;;;5054825;28;20420;-75
2021/03/26 02:26:31;;;;;;;21.63;16.57;;;10.20;96.00;;;;;;5053832;28;20467;-75
2021/03/26 02:28:58;;;;;;;22.67;17.00;;;10.10;96.10;;;;;;5054864;28;20425;-75
2021/03/26 02:31:25;;;;;;;23.73;18.00;;;10.10;95.90;;;;;;5053802;28;20489;-74
2021/03/26 02:33:51;;;;;;;22.77;17.97;;;10.10;96.00;;;;;;5054665;28;20401;-75
2021/03/26 02:36:17;;;;;;;25.30;18.50;;;10.10;96.20;;;;;;5054567;28;20422;-75
2021/03/26 02:38:48;;;;;;;21.70;17.13;;;10.10;96.80;;;;;;5052750;28;20237;-75
2021/03/26 02:41:27;;;;;;;21.10;16.53;;;10.20;97.00;;;;;;5054409;28;20827;-75
2021/03/26 02:44:24;;;;;;;22.93;18.37;;;10.10;96.80;;;;;;5053468;28;20398;-75
2021/03/26 02:47:00;;;;;;;26.53;16.77;;;10.10;96.80;;;;;;5054544;28;20772;-75
2021/03/26 02:49:52;;;;;;;22.40;17.83;;;10.10;96.60;;;;;;5053571;28;20460;-75
2021/03/26 02:52:36;;;;;;;23.13;17.67;;;10.10;96.60;;;;;;5054314;28;20483;-75
2021/03/26 02:55:08;;;;;;;22.10;16.90;;;10.00;96.70;;;;;;5054130;28;20779;-75
2021/03/26 02:58:04;;;;;;;23.53;17.10;;;10.00;96.70;;;;;;5053463;28;20397;-75
2021/03/26 03:00:47;;;;;;;21.87;17.03;;;10.00;96.90;;;;;;5053455;28;20396;-72
2021/03/26 03:03:17;;;;;;;21.30;15.97;;;10.00;96.80;;;;;;5054045;28;20403;-73
2021/03/26 03:05:45;;;;;;;23.00;17.13;;;10.00;96.60;;;;;;5053189;28;20682;-75
2021/03/26 03:08:17;;;;;;;22.20;17.93;;;9.90;97.00;;;;;;5053860;28;20448;-75
2021/03/26 03:10:47;;;;;;;22.80;18.37;;;9.90;97.20;;;;;;5052894;28;20393;-75
2021/03/26 03:13:23;;;;;;;20.47;17.13;;;9.90;97.10;;;;;;5053802;28;20470;-75
2021/03/26 03:15:56;;;;;;;21.87;17.80;;;9.90;96.90;;;;;;5053842;28;20474;-75
2021/03/26 03:18:28;;;;;;;24.00;18.20;;;9.80;97.00;;;;;;5053452;28;20408;-75
2021/03/26 03:21:15;;;;;;;21.83;18.07;;;9.80;97.40;;;;;;5053774;28;20738;-75
2021/03/26 03:23:50;;;;;;;26.77;20.10;;;9.90;97.60;;;;;;5052707;28;20446;-75
2021/03/26 03:26:38;;;;;;;26.70;19.40;;;9.80;97.90;;;;;;5053566;28;20874;-75
2021/03/26 03:29:27;;;;;;;25.73;18.97;;;9.70;98.30;;;;;;5053648;28;20402;-76
2021/03/26 03:31:59;;;;;;;25.07;19.17;;;9.80;98.30;;;;;;5053380;28;20428;-75
2021/03/26 03:35:06;;;;;;;25.03;18.83;;;9.80;98.60;;;;;;5052664;28;20758;-75
2021/03/26 03:37:38;;;;;;;29.33;17.93;;;9.80;98.70;;;;;;5052654;28;20420;-75
2021/03/26 03:40:08;;;;;;;22.73;18.30;;;9.90;98.60;;;;;;5053511;28;20760;-75
2021/03/26 03:42:46;;;;;;;21.80;18.03;;;9.90;98.30;;;;;;5052632;28;20397;-75
2021/03/26 03:45:41;;;;;;;26.03;19.70;;;9.90;98.40;;;;;;5053323;28;20420;-75
2021/03/26 03:48:18;;;;;;;21.43;18.67;;;9.90;98.50;;;;;;5053104;28;20932;-75
2021/03/26 03:50:49;;;;;;;22.67;18.43;;;10.00;97.80;;;;;;5052390;28;20389;-75
2021/03/26 03:53:28;;;;;;;24.03;19.80;;;10.00;97.80;;;;;;5053227;28;20400;-75
2021/03/26 03:56:08;;;;;;;26.70;18.90;;;10.00;97.70;;;;;;5052829;28;20404;-76
2021/03/26 03:58:39;;;;;;;23.70;18.23;;;10.00;97.50;;;;;;5051926;28;20395;-75
2021/03/26 04:01:13;;;;;;;26.40;19.50;;;10.00;97.20;;;;;;5053172;28;20389;-75
2021/03/26 04:03:57;;;;;;;26.10;20.03;;;10.00;96.90;;;;;;5052458;28;20399;-75
2021/03/26 04:06:35;;;;;;;25.20;19.60;;;10.00;97.20;;;;;;5052592;28;20419;-74
2021/03/26 04:09:09;;;;;;;22.43;17.30;;;9.90;97.90;;;;;;5053134;28;20466;-74
2021/03/26 04:12:08;;;;;;;26.00;18.27;;;9.90;97.30;;;;;;5052247;28;20429;-74
2021/03/26 04:14:40;;;;;;;20.67;16.40;;;9.80;96.80;;;;;;5066966;28;20419;-74
2021/03/26 04:17:15;;;;;;;25.00;17.53;;;9.80;96.70;;;;;;5071431;28;20392;-74
2021/03/26 04:19:56;;;;;;;25.50;18.47;;;9.70;96.90;;;;;;5071850;28;20390;-74
2021/03/26 04:22:27;;;;;;;22.20;16.77;;;9.70;97.10;;;;;;5072618;28;20423;-74
2021/03/26 04:25:13;;;;;;;26.87;19.70;;;9.60;97.00;;;;;;5072449;28;20450;-74
2021/03/26 04:27:45;;;;;;;26.80;18.30;;;9.60;97.10;;;;;;5071210;28;21053;-74
2021/03/26 04:30:20;;;;;;;25.63;18.87;;;9.70;97.50;;;;;;5054565;28;20430;-74
2021/03/26 04:32:48;;;;;;;28.53;21.60;;;9.60;97.30;;;;;;5071484;28;20391;-74
2021/03/26 04:35:16;;;;;;;28.10;19.83;;;9.60;97.60;;;;;;5072550;28;20509;-75
2021/03/26 04:37:56;;;;;;;28.17;21.10;;;9.60;97.80;;;;;;5070313;28;20411;-75
2021/03/26 04:40:37;;;;;;;26.53;20.07;;;9.60;97.90;;;;;;5072614;28;20399;-75
2021/03/26 04:43:24;;;;;;;26.67;19.40;;;9.60;98.30;;;;;;5072730;28;20882;-75
2021/03/26 04:46:22;;;;;;;28.83;20.00;;;9.70;98.70;;;;;;5072757;28;20487;-75
2021/03/26 04:49:20;;;;;;;27.73;20.07;;;9.70;98.60;;;;;;5071932;28;20447;-75
2021/03/26 04:52:00;;;;;;;26.03;19.30;;;9.70;99.00;;;;;;5048299;28;20426;-75
2021/03/26 04:54:36;;;;;;;29.10;20.50;;;9.70;98.90;;;;;;5072085;28;20426;-75
2021/03/26 04:57:18;;;;;;;25.40;18.53;;;9.70;98.90;;;;;;5072927;28;20399;-75
2021/03/26 05:00:08;;;;;;;30.40;19.93;;;9.70;98.90;;;;;;5071968;28;20459;-75
2021/03/26 05:02:37;;;;;;;27.67;20.00;;;9.70;98.70;;;;;;5071885;28;20395;-75
2021/03/26 05:05:06;;;;;;;28.77;22.27;;;9.70;98.90;;;;;;5072546;28;20435;-75
2021/03/26 05:07:42;;;;;;;25.73;20.00;;;9.70;99.10;;;;;;5073959;28;20849;-75
2021/03/26 05:10:17;;;;;;;27.57;20.60;;;9.70;99.40;;;;;;5076647;28;20403;-75
2021/03/26 05:12:48;;;;;;;27.50;20.40;;;9.70;99.50;;;;;;5076005;28;20416;-75
2021/03/26 05:15:34;;;;;;;25.40;21.10;;;9.70;99.30;;;;;;5076516;28;20404;-75
2021/03/26 05:18:08;;;;;;;30.40;20.53;;;9.80;99.30;;;;;;5076014;28;20530;-75
2021/03/26 05:20:59;;;;;;;26.20;19.97;;;9.80;99.40;;;;;;5075870;28;20831;-75
2021/03/26 05:23:59;;;;;;;28.80;19.70;;;9.80;99.50;;;;;;5076216;28;20395;-75
2021/03/26 05:26:26;;;;;;;25.40;20.07;;;9.80;99.60;;;;;;5076288;28;20937;-75
2021/03/26 05:28:52;;;;;;;25.50;20.80;;;9.80;99.50;;;;;;5076196;28;20543;-75
2021/03/26 05:31:31;;;;;;;30.30;21.70;;;9.80;99.50;;;;;;5075908;28;20408;-73
2021/03/26 05:34:04;;;;;;;29.13;20.40;;;9.80;99.30;;;;;;5076412;28;20749;-73
2021/03/26 05:36:38;;;;;;;26.27;21.80;;;9.70;99.10;;;;;;5075558;28;20726;-73
2021/03/26 05:39:24;;;;;;;27.20;20.67;;;9.70;99.10;;;;;;5076113;28;20396;-75
2021/03/26 05:42:22;;;;;;;29.40;22.80;;;9.70;98.70;;;;;;5074928;28;20420;-75
2021/03/26 05:45:17;;;;;;;23.10;19.67;;;9.70;98.30;;;;;;5073104;28;20877;-75
2021/03/26 05:48:21;;;;;;;29.73;20.43;;;9.60;98.30;;;;;;5073965;28;20999;-73
2021/03/26 05:51:03;;;;;;;25.90;19.10;;;9.60;98.40;;;;;;5075218;28;20414;-73
2021/03/26 05:53:30;;;;;;;26.87;19.67;;;9.60;98.20;;;;;;5075213;28;20911;-75
2021/03/26 05:56:20;;;;;;;30.83;19.90;;;9.60;98.40;;;;;;5075459;28;20506;-75
2021/03/26 05:59:12;;;;;;;30.27;21.30;;;9.60;98.40;;;;;;5075137;28;20717;-73
2021/03/26 06:02:02;;;;;;;26.10;21.60;;;9.60;98.40;;;;;;5075002;28;20396;-73
2021/03/26 06:04:28;;;;;;;30.73;22.10;;;9.50;98.60;;;;;;5075352;28;20475;-74
2021/03/26 06:07:49;;;;;;;26.57;21.60;;;9.60;98.90;;;;;;5075020;28;20438;-75
2021/03/26 06:10:53;;;;;;;30.70;21.77;;;9.60;98.90;;;;;;5059425;28;20196;-76
2021/03/26 06:13:35;;;;;;;29.07;22.07;;;9.60;99.10;;;;;;5075408;28;20399;-75
2021/03/26 06:16:19;;;;;;;29.00;22.00;;;9.60;99.40;;;;;;5075413;28;20483;-75
2021/03/26 06:18:51;;;;;;;28.50;20.50;;;9.60;99.60;;;;;;5074674;28;20396;-75
2021/03/26 06:21:35;;;;;;;28.40;22.17;;;9.70;99.50;;;;;;5075221;28;20479;-75
2021/03/26 06:24:07;;;;;;;30.10;22.10;;;9.70;99.60;;;;;;5075281;28;20415;-75
2021/03/26 06:26:57;;;;;;;31.23;20.43;;;9.70;99.70;;;;;;5074632;28;20502;-75
2021/03/26 06:29:56;;;;;;;30.30;22.57;;;9.80;99.90;;;;;;5073963;28;20434;-75
2021/03/26 06:32:33;;;;;;;31.97;22.90;;;9.80;99.90;;;;;;5074814;28;20759;-75
2021/03/26 06:35:17;;;;;;;27.60;22.10;;;9.90;99.90;;;;;;5075078;28;20412;-74
2021/03/26 06:38:10;;;;;;;30.63;21.07;;;9.90;99.90;;;;;;5074063;28;20868;-73
2021/03/26 06:40:46;;;;;;;30.87;23.20;;;9.90;99.90;;;;;;5074340;28;20457;-73
2021/03/26 06:43:18;;;;;;;35.20;24.07;;;10.00;99.70;;;;;;5075046;28;20399;-74
2021/03/26 06:46:06;;;;;;;31.57;23.07;;;10.10;99.80;;;;;;5074294;28;20393;-74
2021/03/26 06:48:46;;;;;;;28.67;21.90;;;10.20;99.90;;;;;;5074393;28;20440;-74
2021/03/26 06:51:29;;;;;;;33.17;25.07;;;10.20;99.90;;;;;;5074732;28;20539;-74
2021/03/26 06:54:32;;;;;;;32.10;24.37;;;10.40;99.90;;;;;;5072535;28;20473;-74
2021/03/26 06:57:04;;;;;;;31.00;24.27;;;10.50;99.90;;;;;;5074723;28;20401;-74
2021/03/26 06:59:44;;;;;;;33.70;22.70;;;10.60;99.90;;;;;;5074353;28;20971;-74
2021/03/26 07:02:33;;;;;;;28.50;22.97;;;10.70;99.80;;;;;;5074891;28;20438;-74
2021/03/26 07:05:08;;;;;;;30.70;23.67;;;10.80;99.80;;;;;;5074475;28;20401;-73
2021/03/26 07:07:52;;;;;;;29.17;21.90;;;10.90;99.80;;;;;;5073662;28;20457;-74
2021/03/26 07:10:43;;;;;;;32.70;23.80;;;11.00;99.70;;;;;;5074046;28;20501;-74
2021/03/26 07:13:21;;;;;;;29.93;22.90;;;11.20;99.70;;;;;;5065667;28;20943;-74
2021/03/26 07:16:02;;;;;;;32.77;24.07;;;11.30;99.20;;;;;;5073645;28;20454;-74
2021/03/26 07:18:46;;;;;;;29.53;22.90;;;11.50;98.90;;;;;;5074222;28;20408;-74
2021/03/26 07:21:23;;;;;;;30.27;23.53;;;11.60;98.40;;;;;;5074457;28;20393;-74
2021/03/26 07:24:24;;;;;;;29.80;22.83;;;11.70;98.00;;;;;;5072053;28;20405;-74
2021/03/26 07:27:09;;;;;;;29.20;23.60;;;11.90;97.80;;;;;;5072891;28;20457;-73
2021/03/26 07:30:04;;;;;;;32.37;24.27;;;12.00;97.40;;;;;;5072680;28;20438;-74
2021/03/26 07:32:45;;;;;;;30.73;23.30;;;12.00;97.00;;;;;;5073954;28;20401;-74
2021/03/26 07:35:22;;;;;;;28.90;22.87;;;12.10;96.60;;;;;;5073957;28;20399;-74
2021/03/26 07:38:26;;;;;;;31.30;24.00;;;12.10;96.80;;;;;;5072181;28;20402;-74
2021/03/26 07:41:11;;;;;;;24.70;21.73;;;12.30;96.40;;;;;;5072852;28;20414;-74
2021/03/26 07:44:05;;;;;;;28.90;23.47;;;12.40;96.40;;;;;;5072617;28;20871;-74
2021/03/26 07:46:50;;;;;;;26.30;21.53;;;12.50;96.00;;;;;;5073560;28;20417;-74
2021/03/26 07:50:05;;;;;;;28.47;22.20;;;12.60;96.10;;;;;;5072439;28;20416;-74
2021/03/26 07:52:53;;;;;;;26.93;22.10;;;12.60;95.40;;;;;;5073777;28;20404;-74
2021/03/26 07:55:35;;;;;;;25.80;21.23;;;12.50;95.00;;;;;;5073135;28;20933;-74
2021/03/26 07:58:29;;;;;;;24.43;19.40;;;12.50;94.90;;;;;;5073397;28;20387;-74
2021/03/26 08:01:04;;;;;;;26.37;20.13;;;12.60;94.90;;;;;;5072436;28;20925;-73
2021/03/26 08:03:36;;;;;;;31.70;21.50;;;12.80;95.00;;;;;;5073310;28;20399;-74
2021/03/26 08:06:37;;;;;;;27.90;20.30;;;12.90;94.60;;;;;;5073330;28;20408;-74
2021/03/26 08:09:03;;;;;;;25.20;21.67;;;13.00;94.70;;;;;;5072104;28;20906;-74
2021/03/26 08:11:34;;;;;;;25.80;20.73;;;13.00;94.10;;;;;;5073158;28;20411;-74
2021/03/26 08:14:21;;;;;;;26.00;19.83;;;13.10;94.20;;;;;;5072432;28;20164;-74
2021/03/26 08:17:10;;;;;;;24.73;20.40;;;13.10;93.60;;;;;;5072493;28;20741;-72
2021/03/26 08:19:50;;;;;;;24.40;19.87;;;13.30;94.00;;;;;;5072945;28;20529;-71
2021/03/26 08:22:20;;;;;;;24.17;18.70;;;13.40;93.90;;;;;;5073068;28;20391;-74
2021/03/26 08:25:22;;;;;;;23.93;21.20;;;13.30;93.70;;;;;;5072022;28;20417;-74
2021/03/26 08:28:00;;;;;;;23.90;18.40;;;13.40;93.10;;;;;;5072444;28;20475;-73
2021/03/26 08:30:44;;;;;;;17.40;15.70;;;13.40;92.90;;;;;;5073140;28;20737;-72
2021/03/26 08:33:16;;;;;;;24.53;19.40;;;13.60;93.70;;;;;;5072998;28;20423;-73
2021/03/26 08:36:00;;;;;;;23.17;20.07;;;13.80;93.60;;;;;;5072199;28;20420;-72
2021/03/26 08:38:55;;;;;;;19.37;16.60;;;14.10;93.30;;;;;;5072875;28;20784;-73
2021/03/26 08:41:36;;;;;;;23.47;18.70;;;14.40;92.50;;;;;;5071892;28;20878;-73
2021/03/26 08:44:03;;;;;;;20.73;16.30;;;14.50;92.00;;;;;;5072027;28;20584;-73
2021/03/26 08:46:47;;;;;;;21.97;17.30;;;14.70;90.90;;;;;;5072988;28;20998;-73
2021/03/26 08:49:52;;;;;;;17.57;15.47;;;14.80;90.10;;;;;;5072821;28;20457;-74
2021/03/26 08:52:21;;;;;;;21.93;18.23;;;15.00;90.70;;;;;;5050097;28;20477;-73
2021/03/26 08:55:13;;;;;;;18.70;16.70;;;15.00;89.00;;;;;;5049542;28;20522;-73
2021/03/26 08:58:13;;;;;;;20.50;17.60;;;15.10;89.10;;;;;;5065179;28;20422;-73
2021/03/26 09:01:17;;;;;;;20.30;16.77;;;15.20;89.10;;;;;;5072640;28;20490;-73
2021/03/26 09:04:37;;;;;;;19.40;17.00;;;15.10;89.50;;;;;;5072022;28;20490;-73
2021/03/26 09:07:32;;;;;;;19.93;16.93;;;15.30;89.50;;;;;;5049339;28;20780;-73
2021/03/26 09:09:58;;;;;;;21.27;17.10;;;15.60;89.70;;;;;;5071711;28;20428;-73
2021/03/26 09:12:42;;;;;;;19.00;17.00;;;15.60;87.90;;;;;;5072417;28;20496;-73
2021/03/26 09:15:29;;;;;;;18.30;15.77;;;15.60;86.80;;;;;;5072411;28;20397;-73
2021/03/26 09:18:06;;;;;;;19.73;16.10;;;15.70;85.90;;;;;;5071580;28;20407;-73
2021/03/26 09:20:42;;;;;;;19.47;16.37;;;15.80;86.00;;;;;;5072339;28;20434;-73
2021/03/26 09:23:28;;;;;;;20.27;17.90;;;15.60;84.20;;;;;;5072384;28;20400;-73
2021/03/26 09:26:06;;;;;;;17.70;15.90;;;15.60;84.10;;;;;;5071367;28;20486;-73
2021/03/26 09:28:38;;;;;;;17.80;16.00;;;15.60;83.90;;;;;;5072208;28;20476;-73
2021/03/26 09:31:28;;;;;;;18.13;15.60;;;15.70;84.80;;;;;;5070524;28;20918;-73
2021/03/26 09:33:58;;;;;;;17.50;14.03;;;15.90;83.20;;;;;;5071621;28;20806;-73
2021/03/26 09:36:29;;;;;;;17.20;14.40;;;16.20;82.00;;;;;;5072445;28;20405;-73
2021/03/26 09:39:17;;;;;;;16.47;14.77;;;16.30;80.30;;;;;;5071553;28;20408;-73
2021/03/26 09:41:54;;;;;;;17.30;14.67;;;16.60;83.00;;;;;;5053600;28;20434;-73
2021/03/26 09:44:49;;;;;;;17.10;14.90;;;16.90;80.40;;;;;;5072275;28;20420;-73
2021/03/26 09:47:38;;;;;;;18.07;16.07;;;16.80;77.50;;;;;;5071947;28;20787;-73
2021/03/26 09:50:27;;;;;;;14.83;13.33;;;16.80;77.90;;;;;;5071529;28;20406;-75
2021/03/26 09:52:54;;;;;;;17.20;15.50;;;16.90;78.00;;;;;;5072551;28;20406;-74
2021/03/26 09:55:25;;;;;;;17.93;16.03;;;16.80;75.90;;;;;;5076127;28;20743;-74
2021/03/26 09:58:15;;;;;;;15.93;13.90;;;16.60;77.20;;;;;;5075487;28;20421;-74
2021/03/26 10:01:09;;;;;;;20.30;15.77;;;16.70;78.40;;;;;;5075455;28;20492;-74
2021/03/26 10:03:54;;;;;;;18.10;15.70;;;16.90;78.30;;;;;;5075942;28;20404;-74
2021/03/26 10:06:31;;;;;;;17.43;15.63;;;17.10;77.90;;;;;;5075618;28;20418;-73
2021/03/26 10:09:22;;;;;;;16.20;13.50;;;17.30;75.10;;;;;;5074252;28;21025;-74
2021/03/26 10:12:16;;;;;;;15.57;13.50;;;17.40;74.20;;;;;;5075148;28;20399;-74
2021/03/26 10:15:03;;;;;;;13.47;11.23;;;17.70;73.50;;;;;;5075466;28;20403;-74
2021/03/26 10:17:41;;;;;;;14.10;12.60;;;17.90;72.80;;;;;;5075463;28;20447;-73
2021/03/26 10:20:17;;;;;;;13.03;10.83;;;18.20;71.80;;;;;;5074719;28;20439;-74
2021/03/26 10:22:59;;;;;;;13.27;11.80;;;18.30;71.00;;;;;;5075353;28;20928;-73
2021/03/26 10:25:37;;;;;;;11.23;9.87;;;18.40;70.10;;;;;;5074843;28;20899;-74
2021/03/26 10:28:32;;;;;;;13.37;10.60;;;18.60;68.70;;;;;;5074705;28;20454;-74
2021/03/26 10:31:07;;;;;;;12.97;11.70;;;18.70;67.80;;;;;;5071735;28;20449;-74
2021/03/26 10:33:44;;;;;;;13.10;11.80;;;18.80;67.10;;;;;;5074776;28;20569;-73
2021/03/26 10:36:20;;;;;;;12.90;11.70;;;18.90;66.00;;;;;;5075031;28;20888;-73
2021/03/26 10:39:08;;;;;;;14.40;11.83;;;18.90;64.40;;;;;;5074290;28;20421;-73
2021/03/26 10:41:58;;;;;;;12.80;11.33;;;19.10;65.10;;;;;;5071565;28;20428;-73
2021/03/26 10:44:46;;;;;;;14.10;11.87;;;19.10;64.80;;;;;;5074950;28;20395;-73
2021/03/26 10:47:41;;;;;;;14.23;12.53;;;19.30;63.10;;;;;;5075059;28;20530;-73
2021/03/26 10:50:12;;;;;;;14.63;13.17;;;19.40;62.50;;;;;;5074208;28;20399;-74
2021/03/26 10:53:05;;;;;;;14.70;11.83;;;19.60;63.30;;;;;;5074876;28;20404;-73
2021/03/26 10:55:44;;;;;;;14.77;13.47;;;19.70;62.50;;;;;;5075068;28;20416;-74
2021/03/26 10:58:41;;;;;;;15.70;14.10;;;19.80;61.70;;;;;;5074014;28;20392;-73
2021/03/26 11:01:16;;;;;;;12.67;11.47;;;19.60;59.90;;;;;;5064710;28;20449;-75
2021/03/26 11:03:53;;;;;;;13.90;12.43;;;19.50;59.10;;;;;;5074391;28;20404;-73
2021/03/26 11:06:37;;;;;;;16.13;14.53;;;19.30;59.70;;;;;;5074317;28;20807;-73
2021/03/26 11:09:14;;;;;;;14.00;12.10;;;19.40;58.70;;;;;;5073757;28;20447;-73
2021/03/26 11:11:50;;;;;;;12.97;11.67;;;19.50;59.40;;;;;;5074385;28;20723;-73
2021/03/26 11:14:54;;;;;;;13.83;12.43;;;19.70;58.90;;;;;;5074288;28;20486;-73
2021/03/26 11:17:29;;;;;;;14.13;12.67;;;19.70;57.40;;;;;;5061399;28;20417;-72
2021/03/26 11:20:19;;;;;;;14.83;13.33;;;19.40;58.60;;;;;;5073171;28;20922;-73
2021/03/26 11:23:26;;;;;;;14.27;12.77;;;19.30;59.00;;;;;;5074016;28;20545;-73
2021/03/26 11:26:09;;;;;;;17.07;15.00;;;19.30;59.00;;;;;;5072784;28;20793;-73
2021/03/26 11:28:41;;;;;;;14.00;12.70;;;19.10;59.10;;;;;;5073857;28;20439;-73
2021/03/26 11:31:07;;;;;;;14.17;12.77;;;19.20;60.80;;;;;;5073302;28;20396;-73
2021/03/26 11:33:54;;;;;;;13.03;11.73;;;19.20;60.80;;;;;;5073844;28;20539;-73
2021/03/26 11:36:29;;;;;;;15.70;14.33;;;19.30;61.80;;;;;;5074036;28;20165;-73
2021/03/26 11:39:27;;;;;;;12.93;11.57;;;19.30;59.10;;;;;;5073558;28;20923;-73
2021/03/26 11:42:07;;;;;;;13.93;12.47;;;19.50;60.70;;;;;;5073220;28;20506;-73
2021/03/26 11:44:44;;;;;;;14.50;13.10;;;19.10;58.80;;;;;;5072236;28;20396;-73
2021/03/26 11:47:32;;;;;;;14.03;12.37;;;19.30;60.60;;;;;;5071836;28;20435;-73
2021/03/26 11:50:16;;;;;;;12.53;11.33;;;19.40;57.70;;;;;;5073034;28;20754;-73
2021/03/26 11:52:46;;;;;;;13.40;11.73;;;18.90;58.20;;;;;;5073567;28;20474;-72
2021/03/26 11:55:29;;;;;;;12.37;11.07;;;18.70;59.40;;;;;;5073130;28;20812;-73
2021/03/26 11:58:06;;;;;;;11.30;10.27;;;18.60;59.60;;;;;;5072823;28;20418;-73
2021/03/26 12:00:36;;;;;;;10.50;9.20;;;18.60;57.50;;;;;;5073390;28;20434;-73
2021/03/26 12:03:43;;;;;;;11.27;10.03;;;18.60;58.50;;;;;;5072697;28;20399;-73
2021/03/26 12:06:31;;;;;;;13.93;12.63;;;18.80;59.50;;;;;;5050201;28;20939;-73
2021/03/26 12:09:26;;;;;;;14.97;13.57;;;18.70;59.60;;;;;;5071117;28;20540;-74
2021/03/26 12:11:55;;;;;;;13.70;12.60;;;18.90;60.70;;;;;;5072644;28;20400;-73
2021/03/26 12:14:43;;;;;;;10.53;9.53;;;19.10;59.80;;;;;;5073035;28;20446;-73
2021/03/26 12:17:56;;;;;;;12.70;10.17;;;18.90;58.90;;;;;;5066929;28;20776;-74
2021/03/26 12:20:32;;;;;;;12.43;11.10;;;18.90;58.40;;;;;;5073067;28;20395;-74
2021/03/26 12:23:00;;;;;;;11.83;10.60;;;18.80;59.80;;;;;;5071182;28;20521;-73
2021/03/26 12:25:37;;;;;;;11.50;10.30;;;18.90;60.40;;;;;;5073070;28;20476;-74
2021/03/26 12:28:24;;;;;;;11.90;10.90;;;19.00;60.60;;;;;;5071813;28;20485;-73
2021/03/26 12:30:57;;;;;;;12.30;11.23;;;19.10;59.20;;;;;;5072836;28;20487;-74
2021/03/26 12:33:42;;;;;;;10.07;9.10;;;19.20;59.90;;;;;;5072825;28;20396;-74
2021/03/26 12:36:22;;;;;;;11.80;11.00;;;19.30;60.40;;;;;;5072283;28;20797;-73
2021/03/26 12:39:03;;;;;;;10.80;9.90;;;19.50;59.60;;;;;;5071655;28;20430;-73
2021/03/26 12:41:43;;;;;;;10.30;9.50;;;19.40;57.30;;;;;;5072794;28;20801;-73
2021/03/26 12:44:39;;;;;;;11.13;10.23;;;19.00;56.30;;;;;;5072097;28;20885;-73
2021/03/26 12:47:33;;;;;;;10.33;9.63;;;19.00;56.00;;;;;;5072285;28;20398;-72
2021/03/26 12:50:10;;;;;;;10.30;9.53;;;19.00;56.60;;;;;;5072151;28;20399;-72
2021/03/26 12:52:56;;;;;;;11.83;10.77;;;19.00;58.50;;;;;;5072450;28;20551;-73
2021/03/26 12:55:34;;;;;;;11.27;10.37;;;19.10;59.40;;;;;;5072465;28;20414;-73
2021/03/26 12:58:04;;;;;;;9.90;9.10;;;19.10;58.90;;;;;;5071827;28;20464;-70
2021/03/26 13:00:48;;;;;;;11.53;10.53;;;19.10;58.70;;;;;;5072480;28;20400;-71
2021/03/26 13:03:30;;;;;;;10.37;9.47;;;19.00;58.30;;;;;;5071935;28;20790;-71
2021/03/26 13:06:07;;;;;;;10.57;9.67;;;18.80;58.80;;;;;;5070563;28;20446;-72
2021/03/26 13:08:36;;;;;;;10.67;9.67;;;18.60;58.60;;;;;;5072443;28;20430;-71
2021/03/26 13:11:30;;;;;;;8.60;7.90;;;18.60;60.00;;;;;;5071802;28;20412;-72
2021/03/26 13:14:11;;;;;;;6.80;6.20;;;18.60;60.00;;;;;;5071465;28;20502;-72
2021/03/26 13:16:40;;;;;;;6.87;6.27;;;18.50;58.30;;;;;;5072632;28;20486;-72
2021/03/26 13:19:22;;;;;;;7.80;7.20;;;18.70;59.50;;;;;;5071060;28;20407;-72
2021/03/26 13:22:06;;;;;;;6.70;6.00;;;18.50;59.70;;;;;;5072429;28;20388;-73
2021/03/26 13:24:47;;;;;;;7.13;5.97;;;18.50;59.50;;;;;;5072137;28;20461;-72
2021/03/26 13:27:19;;;;;;;6.93;6.50;;;18.30;59.30;;;;;;5071333;28;20537;-72
2021/03/26 13:30:00;;;;;;;5.90;5.20;;;18.20;59.00;;;;;;5076287;28;20752;-74
2021/03/26 13:32:55;;;;;;;7.07;6.47;;;18.30;59.60;;;;;;5076345;28;20448;-75